Back to Top

Language: 

Current Local METAR Station Weather Reports...

Local METAR Reports

Local METAR Reports

 

EGCN - Doncaster Sheffield Airport, United Kingdom
Distance from station: E 20mi, 32km
Updated: Thu, 01-Jan-1970 1:00am BST
NOT Current
unable to load EGCN data RC=
unable to load EGCN data RC=
 
EGNM - Leeds Bradford International, United Kingdom
Distance from station: NNW 24mi, 39km
Updated: Mon, 17-Dec-2018 7:50am GMT
Few Clouds
Few Clouds
 Wind from WSW
Wind: WSW 6 mph , 9 km/h
Temperature: 4°C
Wind Chill: 2°C
Dew Point: 3°C
Humidity: 93%
Barometer: 1011 hPa
Clouds: Few Clouds
Visibility: 6 miles , 10 km
Cloud details: Few Clouds 183 m
2018/12/17 07:50 EGNM 170750Z 25005KT 210V280 9999 FEW006 04/03 Q1011
 
EGCC - Manchester International, United Kingdom
Distance from station: WSW 35mi, 56km
Updated: Mon, 17-Dec-2018 7:50am GMT
Clear
Clear
 Wind from S
Wind: S 5 mph , 7 km/h
Temperature: 2°C
Wind Chill: 0°C
Dew Point: 1°C
Humidity: 93%
Barometer: 1013 hPa
Clouds: Clear
Visibility: 6 miles , 10 km
2018/12/17 07:50 EGCC 170750Z AUTO 17004KT 150V220 9999 NCD 02/01 Q1013
EGXU - Linton-On-Ouse RAF, United Kingdom
Distance from station: NNE 37mi, 60km
Updated: Mon, 17-Dec-2018 7:50am GMT
Shallow fog, Few clouds
Shallow fog, Few clouds
 Wind from WSW
Wind: WSW 3 mph , 6 km/h
Temperature: 4°C
Dew Point: 4°C
Humidity: 100%
Barometer: 1011 hPa
Summary: Shallow Fog
Clouds: Few Clouds
Visibility: 6 miles , 10 km
Cloud details: Few Clouds 549 m
2018/12/17 07:50 EGXU 170750Z 24003KT 9999 MIFG FEW018 04/04 Q1011 BLU TEMPO 2000 BR
 
EGXP - Scampton RAF, United Kingdom
Distance from station: ESE 41mi, 66km
Updated: Mon, 17-Dec-2018 6:50am GMT
Clear
Clear
 Wind from SW
Wind: SW 9 mph , 15 km/h
Temperature: 2°C
Wind Chill: -2°C
Dew Point: 2°C
Humidity: 100%
Barometer: 1011 hPa
Clouds: Clear
Visibility: 6 miles , 9 km
2018/12/17 06:50 EGXP 170650Z AUTO 23008KT 9000 // NCD 02/02 Q1011
EGNJ - Humberside Airport, United Kingdom
Distance from station: E 46mi, 74km
Updated: Mon, 17-Dec-2018 7:50am GMT
Few Clouds
Few Clouds
 Wind from SW
Wind: SW 8 mph , 13 km/h
Temperature: 4°C
Wind Chill: 1°C
Dew Point: 3°C
Humidity: 93%
Barometer: 1012 hPa
Clouds: Few Clouds
Visibility: 4 miles , 7 km
Cloud details: Few Clouds 488 m
2018/12/17 07:50 EGNJ 170750Z 23007KT 7000 FEW016 04/03 Q1012
 
EGXW - Waddington RAF, United Kingdom
Distance from station: ESE 46mi, 74km
Updated: Mon, 17-Dec-2018 7:50am GMT
Few Clouds
Few Clouds
 Wind from SW
Wind: SW 8 mph , 13 km/h
Temperature: 3°C
Wind Chill: -1°C
Dew Point: 3°C
Humidity: 100%
Barometer: 1012 hPa
Clouds: Few Clouds
Visibility: 6 miles , 10 km
Cloud details: Few Clouds 1006 m
2018/12/17 07:50 EGXW 170750Z 23007KT 9999 FEW033 03/03 Q1012 BLU NOSIG
EGXZ - Topcliffe RAF, United Kingdom
Distance from station: N 46mi, 75km
Updated: Mon, 17-Dec-2018 6:50am GMT
Mist, Few clouds
Mist, Few clouds
 Wind from SE
Wind: SE 3 mph , 6 km/h
Temperature: 0°C
Dew Point: 0°C
Humidity: 100%
Barometer: 1011 hPa
Summary: Mist
Clouds: Few Clouds
Visibility: 2 miles , 3 km
Cloud details: Few Clouds 762 m
2018/12/17 06:50 EGXZ 170650Z AUTO 13003KT 3300 BR FEW025/// 00/M00 Q1011
 
EGXV - Leconfield, United Kingdom
Distance from station: ENE 48mi, 77km
Updated: Mon, 17-Dec-2018 6:50am GMT
Mist, Few clouds
Mist, Few clouds
 Wind from W
Wind: W 6 mph , 9 km/h
Temperature: 3°C
Wind Chill: 0°C
Dew Point: 3°C
Humidity: 100%
Barometer: 1010 hPa
Summary: Mist
Clouds: Few Clouds
Visibility: 3 miles , 4 km
Cloud details: Few Clouds 30 m
2018/12/17 06:50 EGXV 170650Z AUTO 27005KT 4100 BR FEW001/// 03/03 Q1010
EGNX - East Midlands, United Kingdom
Distance from station: S 50mi, 80km
Updated: Mon, 17-Dec-2018 7:50am GMT
Clear
Clear
 Wind from SW
Wind: SW 14 mph , 22 km/h
Temperature: 3°C
Wind Chill: -2°C
Dew Point: 3°C
Humidity: 100%
Barometer: 1013 hPa
Summary: Clear
Visibility: greater than 7 miles , 10 km
2018/12/17 07:50 EGNX 170750Z 23012KT CAVOK 03/03 Q1013

Metar display script from Saratoga-Weather.org

Data updates at regular intervals.